Time,TemperatureF,DewpointF,PressureIn,WindDirection,WindDirectionDegrees,WindSpeedMPH,WindSpeedGustMPH,Humidity,HourlyPrecipIn,Conditions,Clouds,dailyrainin,SoftwareType,DateUTC
2013-07-26 00:01:00,78.4,74.9,29.96,SSW,194,0.8,2.0,89,0.01,CLR,CLR,0.00,WeatherDisplay:10.35,2013-07-26 04:01:00,
2013-07-26 00:02:00,78.4,74.9,29.96,SSW,194,0.1,0.0,89,0.01,CLR,CLR,0.00,WeatherDisplay:10.35,2013-07-26 04:02:00,
2013-07-26 00:03:00,78.4,74.9,29.96,SSW,194,0.2,1.0,89,0.01,CLR,CLR,0.00,WeatherDisplay:10.35,2013-07-26 04:03:00,
2013-07-26 00:08:00,78.5,75.0,29.96,SSW,192,1.3,0.0,89,0.01,CLR,CLR,0.00,WeatherDisplay:10.35,2013-07-26 04:08:00,
2013-07-26 00:13:00,78.7,74.8,29.96,SW,229,0.0,0.0,88,0.01,CLR,CLR,0.00,WeatherDisplay:10.35,2013-07-26 04:13:00,
2013-07-26 00:18:00,78.7,74.8,29.96,South,190,3.7,3.7,88,0.01,CLR,CLR,0.00,WeatherDisplay:10.35,2013-07-26 04:18:00,
2013-07-26 00:23:00,78.7,74.8,29.97,South,183,2.1,3.5,88,0.00,CLR,CLR,0.00,WeatherDisplay:10.35,2013-07-26 04:23:00,
2013-07-26 00:28:00,78.5,75.0,29.97,SSW,194,2.3,0.0,89,0.00,CLR,CLR,0.00,WeatherDisplay:10.35,2013-07-26 04:28:00,
2013-07-26 00:33:00,78.6,75.1,29.97,SW,236,2.1,2.1,89,0.00,CLR,CLR,0.00,WeatherDisplay:10.35,2013-07-26 04:33:00,
2013-07-26 00:39:00,78.5,75.0,29.96,SSW,213,3.0,0.0,89,0.00,CLR,CLR,0.00,WeatherDisplay:10.35,2013-07-26 04:39:00,
2013-07-26 00:44:00,78.4,75.2,29.97,SW,234,0.2,2.0,90,0.00,CLR,CLR,0.00,WeatherDisplay:10.35,2013-07-26 04:44:00,
2013-07-26 00:49:00,78.3,75.5,29.96,WSW,253,2.4,2.4,91,0.00,CLR,CLR,0.00,WeatherDisplay:10.35,2013-07-26 04:49:00,
2013-07-26 00:54:00,78.2,75.4,29.96,SSW,213,5.1,6.0,91,0.00,CLR,CLR,0.00,WeatherDisplay:10.35,2013-07-26 04:54:00,
2013-07-26 01:00:00,78.1,75.6,29.96,WSW,237,3.9,5.0,92,0.00,CLR,CLR,0.00,WeatherDisplay:10.35,2013-07-26 05:00:00,
2013-07-26 01:05:00,77.8,75.3,29.96,South,183,3.3,4.0,92,0.00,CLR,CLR,0.00,WeatherDisplay:10.35,2013-07-26 05:05:00,
2013-07-26 01:10:00,77.5,75.3,29.96,SSW,195,1.7,0.0,93,0.00,CLR,CLR,0.00,WeatherDisplay:10.35,2013-07-26 05:10:00,
2013-07-26 01:15:00,77.3,75.1,29.96,South,190,3.0,3.5,93,0.00,CLR,CLR,0.00,WeatherDisplay:10.35,2013-07-26 05:15:00,
2013-07-26 01:20:00,77.0,75.1,29.95,SSW,198,3.0,0.0,94,0.00,CLR,CLR,0.00,WeatherDisplay:10.35,2013-07-26 05:20:00,
2013-07-26 01:26:00,76.8,74.9,29.95,SW,225,0.3,0.0,94,0.00,CLR,CLR,0.00,WeatherDisplay:10.35,2013-07-26 05:26:00,
2013-07-26 01:31:00,76.6,75.1,29.96,South,190,3.7,4.0,95,0.00,CLR,CLR,0.00,WeatherDisplay:10.35,2013-07-26 05:31:00,
2013-07-26 01:36:00,76.5,75.0,29.95,SW,230,0.6,1.0,95,0.00,CLR,CLR,0.00,WeatherDisplay:10.35,2013-07-26 05:36:00,
2013-07-26 01:42:00,76.3,74.8,29.95,SW,219,2.0,2.0,95,0.00,CLR,CLR,0.00,WeatherDisplay:10.35,2013-07-26 05:42:00,
2013-07-26 01:47:00,76.1,74.6,29.95,SW,226,0.0,0.0,95,0.00,CLR,CLR,0.00,WeatherDisplay:10.35,2013-07-26 05:47:00,
2013-07-26 01:52:00,76.0,74.5,29.95,SW,229,0.1,2.0,95,0.00,CLR,CLR,0.00,WeatherDisplay:10.35,2013-07-26 05:52:00,
2013-07-26 01:57:00,75.9,74.7,29.95,SW,229,0.0,0.0,96,0.00,CLR,CLR,0.00,WeatherDisplay:10.35,2013-07-26 05:57:00,
2013-07-26 02:02:00,75.9,74.7,29.95,SW,219,0.8,0.0,96,0.00,CLR,CLR,0.00,WeatherDisplay:10.35,2013-07-26 06:02:00,
2013-07-26 02:07:00,75.9,74.7,29.95,SW,217,0.5,0.0,96,0.00,CLR,CLR,0.00,WeatherDisplay:10.35,2013-07-26 06:07:00,
2013-07-26 02:13:00,75.9,74.7,29.95,SW,217,0.0,0.0,96,0.00,CLR,CLR,0.00,WeatherDisplay:10.35,2013-07-26 06:13:00,
2013-07-26 02:18:00,75.8,74.3,29.95,SW,217,0.3,0.0,95,0.00,CLR,CLR,0.00,WeatherDisplay:10.35,2013-07-26 06:18:00,
2013-07-26 02:23:00,75.8,74.3,29.95,WSW,248,2.4,3.0,95,0.00,CLR,CLR,0.00,WeatherDisplay:10.35,2013-07-26 06:23:00,
2013-07-26 02:28:00,75.9,74.4,29.95,WSW,238,0.8,0.0,95,0.00,CLR,CLR,0.00,WeatherDisplay:10.35,2013-07-26 06:28:00,
2013-07-26 02:33:00,76.0,74.5,29.94,SW,222,0.0,1.0,95,0.00,CLR,CLR,0.00,WeatherDisplay:10.35,2013-07-26 06:33:00,
2013-07-26 02:39:00,76.0,74.5,29.93,WSW,250,1.6,0.0,95,0.00,CLR,CLR,0.00,WeatherDisplay:10.35,2013-07-26 06:39:00,
2013-07-26 02:44:00,76.0,74.5,29.93,WSW,251,0.7,2.0,95,0.00,CLR,CLR,0.00,WeatherDisplay:10.35,2013-07-26 06:44:00,
2013-07-26 02:49:00,76.0,74.5,29.93,SW,219,1.0,0.0,95,0.00,CLR,CLR,0.00,WeatherDisplay:10.35,2013-07-26 06:49:00,
2013-07-26 02:54:00,75.9,74.7,29.93,SSW,200,0.0,0.0,96,0.00,CLR,CLR,0.00,WeatherDisplay:10.35,2013-07-26 06:54:00,
2013-07-26 02:59:00,75.9,74.7,29.93,SSW,200,0.0,0.0,96,0.00,CLR,CLR,0.00,WeatherDisplay:10.35,2013-07-26 06:59:00,
2013-07-26 03:04:00,75.8,74.6,29.93,SSW,201,0.0,0.0,96,0.00,CLR,CLR,0.00,WeatherDisplay:10.35,2013-07-26 07:04:00,
2013-07-26 03:10:00,75.7,74.5,29.93,SSW,212,0.0,0.0,96,0.00,CLR,CLR,0.00,WeatherDisplay:10.35,2013-07-26 07:10:00,
2013-07-26 03:15:00,75.6,74.4,29.93,SW,225,0.0,0.0,96,0.00,CLR,CLR,0.00,WeatherDisplay:10.35,2013-07-26 07:15:00,
2013-07-26 03:20:00,75.6,74.7,29.93,SW,225,0.1,0.0,97,0.00,CLR,CLR,0.00,WeatherDisplay:10.35,2013-07-26 07:20:00,
2013-07-26 03:26:00,75.6,74.7,29.93,SW,225,0.0,0.0,97,0.00,CLR,CLR,0.00,WeatherDisplay:10.35,2013-07-26 07:26:00,
2013-07-26 03:31:00,75.6,74.7,29.93,SW,225,0.0,0.0,97,0.00,CLR,CLR,0.00,WeatherDisplay:10.35,2013-07-26 07:31:00,
2013-07-26 03:36:00,75.6,74.7,29.92,SW,225,0.0,0.0,97,0.00,CLR,CLR,0.00,WeatherDisplay:10.35,2013-07-26 07:36:00,
2013-07-26 03:41:00,75.5,74.6,29.92,SW,225,0.0,0.0,97,0.00,CLR,CLR,0.00,WeatherDisplay:10.35,2013-07-26 07:41:00,
2013-07-26 03:46:00,75.6,74.7,29.92,SW,225,0.0,0.0,97,0.00,CLR,CLR,0.00,WeatherDisplay:10.35,2013-07-26 07:46:00,
2013-07-26 03:52:00,75.5,74.6,29.92,SW,225,0.0,0.0,97,0.00,CLR,CLR,0.00,WeatherDisplay:10.35,2013-07-26 07:52:00,
2013-07-26 03:57:00,75.5,74.6,29.93,SW,224,0.7,0.0,97,0.00,CLR,CLR,0.00,WeatherDisplay:10.35,2013-07-26 07:57:00,
2013-07-26 04:02:00,75.5,74.6,29.93,SW,225,0.0,0.0,97,0.00,CLR,CLR,0.00,WeatherDisplay:10.35,2013-07-26 08:02:00,
2013-07-26 04:07:00,75.5,74.6,29.93,SW,220,0.4,2.0,97,0.00,CLR,CLR,0.00,WeatherDisplay:10.35,2013-07-26 08:07:00,
2013-07-26 04:12:00,75.4,74.5,29.93,SSW,200,0.5,2.3,97,0.00,CLR,CLR,0.00,WeatherDisplay:10.35,2013-07-26 08:12:00,
2013-07-26 04:17:00,75.3,74.4,29.93,WSW,239,2.0,2.0,97,0.00,CLR,CLR,0.00,WeatherDisplay:10.35,2013-07-26 08:17:00,
2013-07-26 04:23:00,75.3,74.7,29.93,SW,231,0.0,0.0,98,0.00,CLR,CLR,0.00,WeatherDisplay:10.35,2013-07-26 08:23:00,
2013-07-26 04:28:00,75.3,74.4,29.93,SW,231,2.4,2.4,97,0.00,CLR,CLR,0.00,WeatherDisplay:10.35,2013-07-26 08:28:00,
2013-07-26 04:33:00,75.4,74.5,29.93,SW,230,0.0,0.0,97,0.00,CLR,CLR,0.00,WeatherDisplay:10.35,2013-07-26 08:33:00,
2013-07-26 04:39:00,75.4,74.5,29.93,SW,230,0.1,0.0,97,0.00,CLR,CLR,0.00,WeatherDisplay:10.35,2013-07-26 08:39:00,
2013-07-26 04:44:00,75.4,74.5,29.93,SW,230,0.0,0.0,97,0.00,CLR,CLR,0.00,WeatherDisplay:10.35,2013-07-26 08:44:00,
2013-07-26 04:49:00,75.2,74.6,29.93,SW,230,0.0,0.0,98,0.00,CLR,CLR,0.00,WeatherDisplay:10.35,2013-07-26 08:49:00,
2013-07-26 04:54:00,75.2,74.6,29.93,SW,230,0.0,0.0,98,0.00,CLR,CLR,0.00,WeatherDisplay:10.35,2013-07-26 08:54:00,
2013-07-26 04:59:00,75.1,74.5,29.93,SW,230,0.0,0.0,98,0.00,CLR,CLR,0.00,WeatherDisplay:10.35,2013-07-26 08:59:00,
2013-07-26 05:05:00,75.1,74.5,29.93,SW,230,0.0,0.0,98,0.00,CLR,CLR,0.00,WeatherDisplay:10.35,2013-07-26 09:05:00,
2013-07-26 05:10:00,75.1,74.5,29.93,SW,230,0.0,0.0,98,0.00,CLR,CLR,0.00,WeatherDisplay:10.35,2013-07-26 09:10:00,
2013-07-26 05:15:00,75.1,74.5,29.93,SW,230,0.3,0.0,98,0.00,CLR,CLR,0.00,WeatherDisplay:10.35,2013-07-26 09:15:00,
2013-07-26 05:20:00,75.1,74.5,29.94,SW,230,0.0,0.0,98,0.00,CLR,CLR,0.00,WeatherDisplay:10.35,2013-07-26 09:20:00,
2013-07-26 05:25:00,75.2,74.6,29.94,SW,230,0.0,0.0,98,0.00,CLR,CLR,0.00,WeatherDisplay:10.35,2013-07-26 09:25:00,
2013-07-26 05:30:00,75.2,74.6,29.94,SW,230,0.0,0.0,98,0.00,CLR,CLR,0.00,WeatherDisplay:10.35,2013-07-26 09:30:00,
2013-07-26 05:36:00,75.3,74.7,29.94,SW,231,0.0,0.0,98,0.00,CLR,CLR,0.00,WeatherDisplay:10.35,2013-07-26 09:36:00,
2013-07-26 05:40:00,75.3,74.7,29.94,SW,231,0.0,0.0,98,0.00,CLR,CLR,0.00,WeatherDisplay:10.35,2013-07-26 09:40:00,
2013-07-26 05:46:00,75.3,74.7,29.95,SW,231,2.6,3.0,98,0.00,CLR,CLR,0.00,WeatherDisplay:10.35,2013-07-26 09:46:00,
2013-07-26 05:51:00,75.3,74.7,29.95,SW,231,0.0,1.1,98,0.00,CLR,CLR,0.00,WeatherDisplay:10.35,2013-07-26 09:51:00,
2013-07-26 05:56:00,75.3,74.7,29.95,SW,231,0.7,0.0,98,0.00,CLR,CLR,0.00,WeatherDisplay:10.35,2013-07-26 09:56:00,
2013-07-26 06:01:00,75.3,74.7,29.95,WSW,255,2.5,0.0,98,0.00,CLR,CLR,0.00,WeatherDisplay:10.35,2013-07-26 10:01:00,
2013-07-26 06:06:00,75.3,74.7,29.95,WSW,255,0.0,0.0,98,0.00,CLR,CLR,0.00,WeatherDisplay:10.35,2013-07-26 10:06:00,
2013-07-26 06:11:00,75.3,74.7,29.95,WSW,255,0.8,0.0,98,0.00,CLR,CLR,0.00,WeatherDisplay:10.35,2013-07-26 10:11:00,
2013-07-26 06:17:00,75.4,74.8,29.95,WSW,255,0.0,0.0,98,0.00,CLR,CLR,0.00,WeatherDisplay:10.35,2013-07-26 10:17:00,
2013-07-26 06:22:00,75.4,74.8,29.95,WSW,255,0.0,0.0,98,0.00,CLR,CLR,0.00,WeatherDisplay:10.35,2013-07-26 10:22:00,
2013-07-26 06:27:00,75.3,74.7,29.95,WSW,255,0.0,0.0,98,0.00,CLR,CLR,0.00,WeatherDisplay:10.35,2013-07-26 10:27:00,
2013-07-26 06:32:00,75.3,74.7,29.96,WSW,255,0.0,0.0,98,0.00,CLR,CLR,0.00,WeatherDisplay:10.35,2013-07-26 10:32:00,
2013-07-26 06:37:00,75.3,74.7,29.96,WSW,255,0.0,0.0,98,0.00,CLR,CLR,0.00,WeatherDisplay:10.35,2013-07-26 10:37:00,
2013-07-26 06:43:00,75.4,74.8,29.96,WSW,255,0.0,0.0,98,0.00,CLR,CLR,0.00,WeatherDisplay:10.35,2013-07-26 10:43:00,
2013-07-26 06:48:00,75.5,74.9,29.96,WSW,255,0.0,0.0,98,0.00,CLR,CLR,0.00,WeatherDisplay:10.35,2013-07-26 10:48:00,
2013-07-26 06:53:00,75.5,74.9,29.96,WSW,255,0.0,0.0,98,0.00,CLR,CLR,0.00,WeatherDisplay:10.35,2013-07-26 10:53:00,
2013-07-26 06:58:00,75.5,74.9,29.96,WSW,255,0.0,0.0,98,0.00,CLR,CLR,0.00,WeatherDisplay:10.35,2013-07-26 10:58:00,
2013-07-26 07:03:00,75.6,75.0,29.96,WSW,255,0.8,0.0,98,0.00,CLR,CLR,0.00,WeatherDisplay:10.35,2013-07-26 11:03:00,
2013-07-26 07:08:00,75.6,75.0,29.96,SW,231,0.0,0.0,98,0.00,CLR,CLR,0.00,WeatherDisplay:10.35,2013-07-26 11:08:00,
2013-07-26 07:13:00,75.7,75.1,29.97,SW,218,1.0,0.0,98,0.00,CLR,CLR,0.00,WeatherDisplay:10.35,2013-07-26 11:13:00,
2013-07-26 07:18:00,75.6,75.0,29.97,West,281,2.5,2.5,98,0.00,CLR,CLR,0.00,WeatherDisplay:10.35,2013-07-26 11:18:00,
2013-07-26 07:24:00,75.5,74.9,29.97,West,277,0.0,0.0,98,0.00,CLR,CLR,0.00,WeatherDisplay:10.35,2013-07-26 11:24:00,
2013-07-26 07:29:00,75.4,74.8,29.97,West,277,0.0,0.0,98,0.00,CLR,CLR,0.00,WeatherDisplay:10.35,2013-07-26 11:29:00,
2013-07-26 07:34:00,75.4,74.8,29.97,West,277,0.0,0.0,98,0.00,CLR,CLR,0.00,WeatherDisplay:10.35,2013-07-26 11:34:00,
2013-07-26 07:40:00,75.4,74.8,29.97,West,277,0.0,0.0,98,0.00,CLR,CLR,0.00,WeatherDisplay:10.35,2013-07-26 11:40:00,
2013-07-26 07:45:00,75.5,74.9,29.98,West,277,0.0,0.0,98,0.00,CLR,CLR,0.00,WeatherDisplay:10.35,2013-07-26 11:45:00,
2013-07-26 07:50:00,75.5,74.9,29.98,West,277,0.0,0.0,98,0.00,CLR,CLR,0.00,WeatherDisplay:10.35,2013-07-26 11:50:00,
2013-07-26 07:55:00,75.5,74.9,29.98,West,277,0.0,0.0,98,0.00,CLR,CLR,0.00,WeatherDisplay:10.35,2013-07-26 11:55:00,
2013-07-26 08:00:00,75.6,75.0,29.98,West,277,0.0,0.0,98,0.00,CLR,CLR,0.00,WeatherDisplay:10.35,2013-07-26 12:00:00,
2013-07-26 08:05:00,75.6,75.0,29.98,West,277,0.0,0.0,98,0.00,CLR,CLR,0.00,WeatherDisplay:10.35,2013-07-26 12:05:00,
2013-07-26 08:11:00,75.7,75.4,29.98,West,277,0.0,0.0,99,0.00,CLR,CLR,0.00,WeatherDisplay:10.35,2013-07-26 12:11:00,
2013-07-26 08:16:00,75.9,75.6,29.98,West,277,0.3,0.0,99,0.00,CLR,CLR,0.00,WeatherDisplay:10.35,2013-07-26 12:16:00,
2013-07-26 08:22:00,75.9,75.6,29.98,West,278,0.0,0.0,99,0.00,CLR,CLR,0.00,WeatherDisplay:10.35,2013-07-26 12:22:00,
2013-07-26 08:27:00,76.0,75.7,29.98,West,278,0.0,0.0,99,0.00,CLR,CLR,0.00,WeatherDisplay:10.35,2013-07-26 12:27:00,
2013-07-26 08:32:00,76.1,75.8,29.98,West,278,0.0,0.0,99,0.00,CLR,CLR,0.00,WeatherDisplay:10.35,2013-07-26 12:32:00,
2013-07-26 08:37:00,76.2,75.9,29.98,West,278,0.0,0.0,99,0.00,CLR,CLR,0.00,WeatherDisplay:10.35,2013-07-26 12:37:00,
2013-07-26 08:42:00,76.3,76.0,29.98,West,278,0.0,0.0,99,0.00,CLR,CLR,0.00,WeatherDisplay:10.35,2013-07-26 12:42:00,
2013-07-26 08:47:00,76.5,76.2,29.98,West,278,0.0,0.0,99,0.00,CLR,CLR,0.00,WeatherDisplay:10.35,2013-07-26 12:47:00,
2013-07-26 08:52:00,76.7,76.4,29.98,West,277,0.0,0.0,99,0.00,CLR,CLR,0.00,WeatherDisplay:10.35,2013-07-26 12:52:00,
2013-07-26 08:57:00,76.7,76.4,29.98,West,277,0.0,0.0,99,0.00,CLR,CLR,0.00,WeatherDisplay:10.35,2013-07-26 12:57:00,
2013-07-26 09:02:00,76.8,76.5,29.98,West,277,0.0,0.0,99,0.00,CLR,CLR,0.00,WeatherDisplay:10.35,2013-07-26 13:02:00,
2013-07-26 09:07:00,76.9,76.6,29.98,West,277,0.0,0.0,99,0.00,CLR,CLR,0.00,WeatherDisplay:10.35,2013-07-26 13:07:00,
2013-07-26 09:13:00,77.1,76.8,29.98,NW,325,0.0,0.0,99,0.00,CLR,CLR,0.00,WeatherDisplay:10.35,2013-07-26 13:13:00,
2013-07-26 09:18:00,77.6,77.3,29.98,NW,318,2.6,2.6,99,0.00,CLR,CLR,0.00,WeatherDisplay:10.35,2013-07-26 13:18:00,
2013-07-26 09:23:00,78.0,77.7,29.98,NW,319,1.2,1.2,99,0.00,CLR,CLR,0.00,WeatherDisplay:10.35,2013-07-26 13:23:00,
2013-07-26 09:28:00,78.5,78.2,29.98,NW,315,0.8,2.3,99,0.00,CLR,CLR,0.00,WeatherDisplay:10.35,2013-07-26 13:28:00,
2013-07-26 09:33:00,78.9,78.3,29.98,NNW,338,1.0,0.0,98,0.00,CLR,CLR,0.00,WeatherDisplay:10.35,2013-07-26 13:33:00,
2013-07-26 09:38:00,79.1,78.2,29.98,NNW,329,1.3,3.0,97,0.00,CLR,CLR,0.00,WeatherDisplay:10.35,2013-07-26 13:38:00,
2013-07-26 09:43:00,79.2,78.0,29.98,NNW,335,2.4,0.0,96,0.00,CLR,CLR,0.00,WeatherDisplay:10.35,2013-07-26 13:43:00,
2013-07-26 09:49:00,79.8,78.2,29.98,NW,313,4.5,6.0,95,0.00,CLR,CLR,0.00,WeatherDisplay:10.35,2013-07-26 13:49:00,
2013-07-26 09:54:00,80.3,78.1,29.98,NW,317,1.2,0.0,93,0.00,CLR,CLR,0.00,WeatherDisplay:10.35,2013-07-26 13:54:00,
2013-07-26 09:59:00,80.9,78.7,29.98,NNW,338,0.8,0.0,93,0.00,CLR,CLR,0.00,WeatherDisplay:10.35,2013-07-26 13:59:00,
2013-07-26 10:04:00,81.2,78.3,29.98,NNW,331,0.0,0.0,91,0.00,CLR,CLR,0.00,WeatherDisplay:10.35,2013-07-26 14:04:00,
2013-07-26 10:09:00,81.3,77.7,29.98,NW,324,1.8,3.0,89,0.00,CLR,CLR,0.00,WeatherDisplay:10.35,2013-07-26 14:09:00,
2013-07-26 10:14:00,81.9,78.7,29.97,NNW,331,1.3,0.0,90,0.00,CLR,CLR,0.00,WeatherDisplay:10.35,2013-07-26 14:14:00,
2013-07-26 10:19:00,82.4,77.8,29.98,NNW,345,2.4,3.0,86,0.00,CLR,CLR,0.00,WeatherDisplay:10.35,2013-07-26 14:19:00,
2013-07-26 10:24:00,81.9,77.3,29.98,NNW,331,1.8,3.0,86,0.00,CLR,CLR,0.00,WeatherDisplay:10.35,2013-07-26 14:24:00,
2013-07-26 10:29:00,81.8,77.2,29.98,North,353,0.0,1.0,86,0.00,,,0.00,WeatherDisplay:10.35,2013-07-26 14:29:00,
2013-07-26 10:34:00,82.3,77.7,29.98,North,358,1.4,3.0,86,0.00,CLR,CLR,0.00,WeatherDisplay:10.35,2013-07-26 14:34:00,
2013-07-26 10:40:00,82.8,77.5,29.98,North,0,1.5,0.0,84,0.00,CLR,CLR,0.00,WeatherDisplay:10.35,2013-07-26 14:40:00,
2013-07-26 10:45:00,82.8,77.5,29.98,NNE,13,1.5,3.0,84,0.00,CLR,CLR,0.00,WeatherDisplay:10.35,2013-07-26 14:45:00,
2013-07-26 10:50:00,82.5,77.2,29.98,North,351,2.1,2.1,84,0.00,CLR,CLR,0.00,WeatherDisplay:10.35,2013-07-26 14:50:00,
2013-07-26 10:55:00,82.3,77.3,29.98,NNW,327,0.0,0.0,85,0.00,CLR,CLR,0.00,WeatherDisplay:10.35,2013-07-26 14:55:00,
2013-07-26 11:00:00,82.2,77.2,29.99,North,7,0.4,2.0,85,0.00,CLR,CLR,0.00,WeatherDisplay:10.35,2013-07-26 15:00:00,
2013-07-26 11:06:00,81.9,76.9,29.99,NNW,346,0.1,0.0,85,0.00,CLR,CLR,0.00,WeatherDisplay:10.35,2013-07-26 15:06:00,
2013-07-26 11:11:00,82.0,77.0,29.99,NW,309,0.8,1.0,85,0.00,CLR,CLR,0.00,WeatherDisplay:10.35,2013-07-26 15:11:00,
2013-07-26 11:16:00,82.5,77.2,29.99,North,350,0.1,1.0,84,0.00,CLR,CLR,0.00,WeatherDisplay:10.35,2013-07-26 15:16:00,
2013-07-26 11:21:00,83.6,77.5,29.99,NE,48,1.4,0.0,82,0.00,CLR,CLR,0.00,WeatherDisplay:10.35,2013-07-26 15:21:00,
2013-07-26 11:26:00,84.6,78.1,29.99,NE,44,0.8,0.0,81,0.00,CLR,CLR,0.00,WeatherDisplay:10.35,2013-07-26 15:26:00,
2013-07-26 11:31:00,85.2,78.3,29.99,NE,45,0.0,0.0,80,0.00,CLR,CLR,0.00,WeatherDisplay:10.35,2013-07-26 15:31:00,
2013-07-26 11:37:00,85.6,77.9,29.99,North,5,0.1,4.0,78,0.00,CLR,CLR,0.00,WeatherDisplay:10.35,2013-07-26 15:37:00,
2013-07-26 11:42:00,85.6,78.7,29.99,NNW,346,0.1,1.1,80,0.00,CLR,CLR,0.00,WeatherDisplay:10.35,2013-07-26 15:42:00,
2013-07-26 11:47:00,85.7,77.7,29.99,NNW,348,3.0,6.9,77,0.00,CLR,CLR,0.00,WeatherDisplay:10.35,2013-07-26 15:47:00,
2013-07-26 11:52:00,86.1,78.4,29.99,NNW,346,0.1,0.0,78,0.00,CLR,CLR,0.00,WeatherDisplay:10.35,2013-07-26 15:52:00,
2013-07-26 11:58:00,86.3,78.2,29.99,East,80,0.0,0.0,77,0.00,CLR,CLR,0.00,WeatherDisplay:10.35,2013-07-26 15:58:00,
2013-07-26 12:03:00,86.4,77.9,29.99,NNE,25,1.1,2.0,76,0.00,CLR,CLR,0.00,WeatherDisplay:10.35,2013-07-26 16:03:00,
2013-07-26 12:08:00,86.8,78.3,29.98,NE,40,0.2,0.0,76,0.00,CLR,CLR,0.00,WeatherDisplay:10.35,2013-07-26 16:08:00,
2013-07-26 12:13:00,87.0,78.1,29.98,NNE,19,0.0,0.0,75,0.00,CLR,CLR,0.00,WeatherDisplay:10.35,2013-07-26 16:13:00,
2013-07-26 12:19:00,87.2,78.7,29.98,ENE,69,0.0,0.0,76,0.00,CLR,CLR,0.00,WeatherDisplay:10.35,2013-07-26 16:19:00,
2013-07-26 12:24:00,87.3,78.4,29.98,North,355,0.1,0.0,75,0.00,CLR,CLR,0.00,WeatherDisplay:10.35,2013-07-26 16:24:00,
2013-07-26 12:29:00,87.5,78.2,29.98,NNW,345,1.2,0.0,74,0.00,CLR,CLR,0.00,WeatherDisplay:10.35,2013-07-26 16:29:00,
2013-07-26 12:34:00,87.9,78.6,29.98,NNE,17,1.2,2.0,74,0.00,CLR,CLR,0.00,WeatherDisplay:10.35,2013-07-26 16:34:00,
2013-07-26 12:39:00,88.2,78.0,29.98,North,3,3.1,3.1,72,0.00,CLR,CLR,0.00,WeatherDisplay:10.35,2013-07-26 16:39:00,
2013-07-26 12:44:00,88.3,78.5,29.98,North,3,1.0,4.0,73,0.00,CLR,CLR,0.00,WeatherDisplay:10.35,2013-07-26 16:44:00,
2013-07-26 12:49:00,88.0,79.1,29.98,NNW,327,0.4,0.0,75,0.00,CLR,CLR,0.00,WeatherDisplay:10.35,2013-07-26 16:49:00,
2013-07-26 12:54:00,87.7,78.4,29.98,NE,53,2.6,2.6,74,0.00,CLR,CLR,0.00,WeatherDisplay:10.35,2013-07-26 16:54:00,
2013-07-26 12:59:00,87.5,79.4,29.98,NNE,23,1.0,6.0,77,0.00,CLR,CLR,0.00,WeatherDisplay:10.35,2013-07-26 16:59:00,
2013-07-26 13:04:00,86.9,78.0,29.98,ESE,104,0.0,0.0,75,0.00,CLR,CLR,0.00,WeatherDisplay:10.35,2013-07-26 17:04:00,
2013-07-26 13:09:00,87.0,78.5,29.98,NNW,345,2.9,4.0,76,0.00,CLR,CLR,0.00,WeatherDisplay:10.35,2013-07-26 17:09:00,
2013-07-26 13:14:00,86.6,78.5,29.98,ENE,65,1.1,0.0,77,0.00,CLR,CLR,0.00,WeatherDisplay:10.35,2013-07-26 17:14:00,
2013-07-26 13:20:00,85.7,77.7,29.98,ENE,57,1.2,0.0,77,0.00,CLR,CLR,0.00,WeatherDisplay:10.35,2013-07-26 17:20:00,
2013-07-26 13:25:00,85.9,77.8,29.98,NNW,344,3.3,3.3,77,0.00,CLR,CLR,0.00,WeatherDisplay:10.35,2013-07-26 17:25:00,
2013-07-26 13:30:00,86.6,78.5,29.98,NNW,343,1.1,1.1,77,0.00,CLR,CLR,0.00,WeatherDisplay:10.35,2013-07-26 17:30:00,
2013-07-26 13:35:00,86.9,78.0,29.98,ENE,67,1.0,2.0,75,0.00,CLR,CLR,0.00,WeatherDisplay:10.35,2013-07-26 17:35:00,
2013-07-26 13:40:00,87.1,78.2,29.97,ENE,65,0.3,0.0,75,0.00,CLR,CLR,0.00,WeatherDisplay:10.35,2013-07-26 17:40:00,
2013-07-26 13:45:00,87.0,78.1,29.98,North,356,1.1,0.0,75,0.00,CLR,CLR,0.00,WeatherDisplay:10.35,2013-07-26 17:45:00,
2013-07-26 13:51:00,87.2,77.9,29.98,ENE,75,1.4,0.0,74,0.00,CLR,CLR,0.00,WeatherDisplay:10.35,2013-07-26 17:51:00,
2013-07-26 13:56:00,86.6,77.3,29.98,NE,48,1.8,0.0,74,0.00,CLR,CLR,0.00,WeatherDisplay:10.35,2013-07-26 17:56:00,
2013-07-26 14:01:00,86.1,77.6,29.98,ENE,67,1.5,0.0,76,0.00,CLR,CLR,0.00,WeatherDisplay:10.35,2013-07-26 18:01:00,
2013-07-26 14:06:00,86.3,78.2,29.98,NNE,27,1.2,3.0,77,0.00,CLR,CLR,0.00,WeatherDisplay:10.35,2013-07-26 18:06:00,
2013-07-26 14:12:00,86.9,78.4,29.98,North,2,0.0,0.0,76,0.00,CLR,CLR,0.00,WeatherDisplay:10.35,2013-07-26 18:12:00,
2013-07-26 14:17:00,87.2,79.5,29.98,NNW,338,0.4,0.0,78,0.00,CLR,CLR,0.00,WeatherDisplay:10.35,2013-07-26 18:17:00,
2013-07-26 14:22:00,87.5,79.0,29.98,ENE,73,0.9,0.0,76,0.00,CLR,CLR,0.00,WeatherDisplay:10.35,2013-07-26 18:22:00,
2013-07-26 14:27:00,87.0,78.1,29.98,NE,37,0.1,1.0,75,0.00,CLR,CLR,0.00,WeatherDisplay:10.35,2013-07-26 18:27:00,
2013-07-26 14:32:00,86.6,78.1,29.97,ESE,111,0.5,0.0,76,0.00,CLR,CLR,0.00,WeatherDisplay:10.35,2013-07-26 18:32:00,
2013-07-26 14:37:00,86.8,78.7,29.97,ENE,74,0.0,0.0,77,0.00,CLR,CLR,0.00,WeatherDisplay:10.35,2013-07-26 18:37:00,
2013-07-26 14:42:00,86.8,78.3,29.97,NE,36,1.4,3.5,76,0.00,CLR,CLR,0.00,WeatherDisplay:10.35,2013-07-26 18:42:00,
2013-07-26 14:48:00,86.7,78.2,29.96,ENE,73,1.8,3.0,76,0.00,CLR,CLR,0.00,WeatherDisplay:10.35,2013-07-26 18:48:00,
2013-07-26 14:53:00,87.0,78.5,29.96,NE,36,0.2,0.0,76,0.00,CLR,CLR,0.00,WeatherDisplay:10.35,2013-07-26 18:53:00,
2013-07-26 14:58:00,86.2,78.1,29.96,ENE,59,0.9,0.0,77,0.00,CLR,CLR,0.00,WeatherDisplay:10.35,2013-07-26 18:58:00,
2013-07-26 15:03:00,86.1,78.0,29.96,NE,54,0.9,0.0,77,0.00,CLR,CLR,0.00,WeatherDisplay:10.35,2013-07-26 19:03:00,
2013-07-26 15:08:00,86.0,77.9,29.96,East,80,1.6,3.5,77,0.00,CLR,CLR,0.00,WeatherDisplay:10.35,2013-07-26 19:08:00,
2013-07-26 15:13:00,85.8,78.1,29.96,NE,55,0.8,4.0,78,0.00,CLR,CLR,0.00,WeatherDisplay:10.35,2013-07-26 19:13:00,
2013-07-26 15:19:00,86.1,78.4,29.96,SE,142,0.7,0.0,78,0.00,CLR,CLR,0.00,WeatherDisplay:10.35,2013-07-26 19:19:00,
2013-07-26 15:24:00,86.3,77.8,29.95,East,90,1.3,2.0,76,0.00,CLR,CLR,0.00,WeatherDisplay:10.35,2013-07-26 19:24:00,
2013-07-26 15:29:00,86.5,78.8,29.95,ENE,77,0.6,1.0,78,0.00,CLR,CLR,0.00,WeatherDisplay:10.35,2013-07-26 19:29:00,
2013-07-26 15:34:00,86.5,77.2,29.95,NE,52,2.0,2.0,74,0.00,CLR,CLR,0.00,WeatherDisplay:10.35,2013-07-26 19:34:00,
2013-07-26 15:39:00,86.2,78.1,29.95,ENE,75,1.0,2.0,77,0.00,CLR,CLR,0.00,WeatherDisplay:10.35,2013-07-26 19:39:00,
2013-07-26 15:44:00,85.9,77.5,29.95,East,96,0.0,0.0,76,0.00,CLR,CLR,0.00,WeatherDisplay:10.35,2013-07-26 19:44:00,
2013-07-26 15:49:00,86.1,77.6,29.95,NNE,17,1.9,3.0,76,0.00,CLR,CLR,0.00,WeatherDisplay:10.35,2013-07-26 19:49:00,
2013-07-26 15:54:00,86.6,78.1,29.95,North,351,0.9,3.5,76,0.00,CLR,CLR,0.00,WeatherDisplay:10.35,2013-07-26 19:54:00,
2013-07-26 15:59:00,87.1,78.6,29.95,NNE,23,0.0,1.0,76,0.00,CLR,CLR,0.00,WeatherDisplay:10.35,2013-07-26 19:59:00,
2013-07-26 16:04:00,87.5,78.2,29.94,ENE,69,1.3,0.0,74,0.00,CLR,CLR,0.00,WeatherDisplay:10.35,2013-07-26 20:04:00,
2013-07-26 16:09:00,87.4,77.7,29.94,ENE,67,0.8,0.0,73,0.00,CLR,CLR,0.00,WeatherDisplay:10.35,2013-07-26 20:09:00,
2013-07-26 16:15:00,87.7,78.0,29.94,NE,35,0.0,0.0,73,0.00,CLR,CLR,0.00,WeatherDisplay:10.35,2013-07-26 20:15:00,
2013-07-26 16:20:00,87.7,77.5,29.94,North,6,1.9,0.0,72,0.00,CLR,CLR,0.00,WeatherDisplay:10.35,2013-07-26 20:20:00,
2013-07-26 16:25:00,87.4,77.7,29.94,North,0,0.1,0.0,73,0.00,CLR,CLR,0.00,WeatherDisplay:10.35,2013-07-26 20:25:00,
2013-07-26 16:30:00,87.3,77.6,29.94,ENE,73,1.5,0.0,73,0.00,CLR,CLR,0.00,WeatherDisplay:10.35,2013-07-26 20:30:00,
2013-07-26 16:35:00,87.4,78.9,29.94,South,182,0.2,1.1,76,0.00,CLR,CLR,0.00,WeatherDisplay:10.35,2013-07-26 20:35:00,
2013-07-26 16:40:00,87.3,78.0,29.95,NW,311,1.2,0.0,74,0.00,CLR,CLR,0.00,WeatherDisplay:10.35,2013-07-26 20:40:00,
2013-07-26 16:46:00,86.7,77.4,29.95,East,81,2.0,3.0,74,0.00,CLR,CLR,0.00,WeatherDisplay:10.35,2013-07-26 20:46:00,
2013-07-26 16:51:00,86.2,77.7,29.95,NE,48,0.2,0.0,76,0.00,CLR,CLR,0.00,WeatherDisplay:10.35,2013-07-26 20:51:00,
2013-07-26 16:56:00,86.0,77.5,29.95,ENE,66,1.8,0.0,76,0.00,CLR,CLR,0.00,WeatherDisplay:10.35,2013-07-26 20:56:00,
2013-07-26 17:01:00,85.9,77.1,29.95,North,349,1.0,0.0,75,0.00,CLR,CLR,0.00,WeatherDisplay:10.35,2013-07-26 21:01:00,
2013-07-26 17:06:00,86.0,77.5,29.95,East,81,1.0,4.0,76,0.00,CLR,CLR,0.00,WeatherDisplay:10.35,2013-07-26 21:06:00,
2013-07-26 17:12:00,86.0,76.7,29.95,NNW,337,3.0,0.0,74,0.00,CLR,CLR,0.00,WeatherDisplay:10.35,2013-07-26 21:12:00,
2013-07-26 17:17:00,85.9,77.5,29.95,ENE,63,0.0,0.0,76,0.00,CLR,CLR,0.00,WeatherDisplay:10.35,2013-07-26 21:17:00,
2013-07-26 17:22:00,85.8,76.5,29.95,East,86,1.3,1.3,74,0.00,CLR,CLR,0.00,WeatherDisplay:10.35,2013-07-26 21:22:00,
2013-07-26 17:27:00,85.9,77.5,29.95,NNE,17,0.3,0.0,76,0.00,CLR,CLR,0.00,WeatherDisplay:10.35,2013-07-26 21:27:00,
2013-07-26 17:32:00,86.2,77.3,29.95,ENE,61,1.0,0.0,75,0.00,CLR,CLR,0.00,WeatherDisplay:10.35,2013-07-26 21:32:00,
2013-07-26 17:37:00,85.9,77.1,29.95,ENE,77,0.3,2.3,75,0.00,CLR,CLR,0.00,WeatherDisplay:10.35,2013-07-26 21:37:00,
2013-07-26 17:42:00,85.6,76.8,29.95,ENE,69,0.2,0.0,75,0.00,CLR,CLR,0.00,WeatherDisplay:10.35,2013-07-26 21:42:00,
2013-07-26 17:48:00,85.6,76.8,29.95,SE,131,1.7,0.0,75,0.00,CLR,CLR,0.00,WeatherDisplay:10.35,2013-07-26 21:48:00,
2013-07-26 17:53:00,85.1,77.1,29.95,ENE,70,0.7,0.0,77,0.00,CLR,CLR,0.00,WeatherDisplay:10.35,2013-07-26 21:53:00,
2013-07-26 17:58:00,85.2,76.8,29.95,NE,55,0.7,0.0,76,0.00,CLR,CLR,0.00,WeatherDisplay:10.35,2013-07-26 21:58:00,
2013-07-26 18:03:00,85.4,77.0,29.95,ENE,69,0.2,0.0,76,0.00,CLR,CLR,0.00,WeatherDisplay:10.35,2013-07-26 22:03:00,
2013-07-26 18:08:00,85.2,77.2,29.94,North,3,1.0,0.0,77,0.00,CLR,CLR,0.00,WeatherDisplay:10.35,2013-07-26 22:08:00,
2013-07-26 18:13:00,84.5,76.5,29.94,East,89,1.3,0.0,77,0.00,CLR,CLR,0.00,WeatherDisplay:10.35,2013-07-26 22:13:00,
2013-07-26 18:19:00,83.8,76.6,29.94,ENE,60,0.0,0.0,79,0.00,CLR,CLR,0.00,WeatherDisplay:10.35,2013-07-26 22:19:00,
2013-07-26 18:24:00,83.0,76.2,29.94,ENE,66,0.0,0.0,80,0.00,CLR,CLR,0.00,WeatherDisplay:10.35,2013-07-26 22:24:00,
2013-07-26 18:29:00,82.7,76.3,29.94,ENE,65,0.0,0.0,81,0.00,CLR,CLR,0.00,WeatherDisplay:10.35,2013-07-26 22:29:00,
2013-07-26 18:34:00,82.5,76.4,29.94,ENE,63,0.0,0.0,82,0.00,CLR,CLR,0.00,WeatherDisplay:10.35,2013-07-26 22:34:00,
2013-07-26 18:39:00,82.3,76.3,29.95,ENE,65,0.1,0.0,82,0.00,CLR,CLR,0.00,WeatherDisplay:10.35,2013-07-26 22:39:00,
2013-07-26 18:45:00,82.1,76.1,29.95,North,353,0.0,0.0,82,0.00,CLR,CLR,0.00,WeatherDisplay:10.35,2013-07-26 22:45:00,
2013-07-26 18:50:00,82.1,76.4,29.95,North,353,0.0,0.0,83,0.00,CLR,CLR,0.00,WeatherDisplay:10.35,2013-07-26 22:50:00,
2013-07-26 18:55:00,82.0,76.3,29.94,NE,48,0.0,0.0,83,0.00,CLR,CLR,0.00,WeatherDisplay:10.35,2013-07-26 22:55:00,
2013-07-26 19:00:00,81.9,76.2,29.94,NE,48,0.0,0.0,83,0.00,CLR,CLR,0.00,WeatherDisplay:10.35,2013-07-26 23:00:00,
2013-07-26 19:05:00,81.8,76.5,29.94,ENE,75,0.0,0.0,84,0.00,CLR,CLR,0.00,WeatherDisplay:10.35,2013-07-26 23:05:00,
2013-07-26 19:10:00,81.6,76.3,29.94,ENE,77,0.0,0.0,84,0.00,CLR,CLR,0.00,WeatherDisplay:10.35,2013-07-26 23:10:00,
2013-07-26 19:15:00,81.5,76.2,29.94,ENE,60,0.4,0.0,84,0.00,CLR,CLR,0.00,WeatherDisplay:10.35,2013-07-26 23:15:00,
2013-07-26 19:21:00,81.3,76.0,29.94,ENE,77,0.0,0.0,84,0.00,CLR,CLR,0.00,WeatherDisplay:10.35,2013-07-26 23:21:00,
2013-07-26 19:26:00,81.2,76.3,29.95,ENE,77,0.0,0.0,85,0.00,CLR,CLR,0.00,WeatherDisplay:10.35,2013-07-26 23:26:00,
2013-07-26 19:31:00,81.2,76.3,29.95,ENE,77,0.0,0.0,85,0.00,CLR,CLR,0.00,WeatherDisplay:10.35,2013-07-26 23:31:00,
2013-07-26 19:37:00,81.1,76.5,29.95,ENE,77,0.0,0.0,86,0.00,CLR,CLR,0.00,WeatherDisplay:10.35,2013-07-26 23:37:00,
2013-07-26 19:42:00,81.1,76.5,29.95,ENE,77,0.0,0.0,86,0.00,CLR,CLR,0.00,WeatherDisplay:10.35,2013-07-26 23:42:00,
2013-07-26 19:47:00,80.9,76.3,29.95,ENE,77,0.0,0.0,86,0.00,CLR,CLR,0.00,WeatherDisplay:10.35,2013-07-26 23:47:00,
2013-07-26 19:52:00,80.9,76.3,29.95,ENE,77,0.0,0.0,86,0.00,CLR,CLR,0.00,WeatherDisplay:10.35,2013-07-26 23:52:00,
2013-07-26 19:58:00,80.8,76.6,29.95,ENE,77,0.0,0.0,87,0.00,CLR,CLR,0.00,WeatherDisplay:10.35,2013-07-26 23:58:00,
2013-07-26 20:03:00,80.7,76.5,29.96,ENE,77,0.0,0.0,87,0.00,CLR,CLR,0.00,WeatherDisplay:10.35,2013-07-27 00:03:00,
2013-07-26 20:08:00,80.6,76.7,29.96,ENE,77,0.0,0.0,88,0.00,CLR,CLR,0.00,WeatherDisplay:10.35,2013-07-27 00:08:00,
2013-07-26 20:13:00,80.5,76.6,29.96,ENE,77,0.5,0.0,88,0.00,CLR,CLR,0.00,WeatherDisplay:10.35,2013-07-27 00:13:00,
2013-07-26 20:18:00,80.5,76.6,29.96,ENE,77,0.0,0.0,88,0.00,CLR,CLR,0.00,WeatherDisplay:10.35,2013-07-27 00:18:00,
2013-07-26 20:24:00,80.4,76.9,29.96,ENE,77,0.0,0.0,89,0.00,CLR,CLR,0.00,WeatherDisplay:10.35,2013-07-27 00:24:00,
2013-07-26 20:29:00,80.3,76.8,29.96,ENE,78,0.0,0.0,89,0.00,CLR,CLR,0.00,WeatherDisplay:10.35,2013-07-27 00:29:00,
2013-07-26 20:34:00,80.3,77.1,29.96,ENE,78,0.0,0.0,90,0.00,CLR,CLR,0.00,WeatherDisplay:10.35,2013-07-27 00:34:00,
2013-07-26 20:39:00,80.2,77.0,29.96,ENE,78,0.0,0.0,90,0.00,CLR,CLR,0.00,WeatherDisplay:10.35,2013-07-27 00:39:00,
2013-07-26 20:44:00,80.2,77.0,29.96,ENE,68,0.0,0.0,90,0.00,,,0.00,WeatherDisplay:10.35,2013-07-27 00:44:00,
2013-07-26 20:49:00,80.1,76.9,29.96,ENE,78,0.0,0.0,90,0.00,CLR,CLR,0.00,WeatherDisplay:10.35,2013-07-27 00:49:00,
2013-07-26 20:54:00,80.0,77.1,29.96,ENE,78,0.0,0.0,91,0.00,CLR,CLR,0.00,WeatherDisplay:10.35,2013-07-27 00:54:00,
2013-07-26 21:00:00,79.9,77.0,29.97,ENE,78,0.0,0.0,91,0.00,CLR,CLR,0.00,WeatherDisplay:10.35,2013-07-27 01:00:00,
2013-07-26 21:05:00,79.9,77.0,29.97,ENE,78,0.0,0.0,91,0.00,CLR,CLR,0.00,WeatherDisplay:10.35,2013-07-27 01:05:00,
2013-07-26 21:10:00,79.8,76.9,29.98,ENE,78,0.0,0.0,91,0.00,CLR,CLR,0.00,WeatherDisplay:10.35,2013-07-27 01:10:00,
2013-07-26 21:15:00,79.7,77.2,29.98,ENE,78,0.0,0.0,92,0.00,CLR,CLR,0.00,WeatherDisplay:10.35,2013-07-27 01:15:00,
2013-07-26 21:20:00,79.6,77.1,29.98,ENE,78,0.0,0.0,92,0.00,CLR,CLR,0.00,WeatherDisplay:10.35,2013-07-27 01:20:00,
2013-07-26 21:25:00,79.5,77.0,29.98,ENE,78,0.0,0.0,92,0.00,CLR,CLR,0.00,WeatherDisplay:10.35,2013-07-27 01:25:00,
2013-07-26 21:30:00,79.5,77.0,29.97,ENE,78,0.0,0.0,92,0.00,CLR,CLR,0.00,WeatherDisplay:10.35,2013-07-27 01:30:00,
2013-07-26 21:35:00,79.4,76.9,29.97,ENE,78,0.0,0.0,92,0.00,CLR,CLR,0.00,WeatherDisplay:10.35,2013-07-27 01:35:00,
2013-07-26 21:40:00,79.3,76.8,29.97,ENE,78,0.0,0.0,92,0.00,CLR,CLR,0.00,WeatherDisplay:10.35,2013-07-27 01:40:00,
2013-07-26 21:45:00,79.2,76.7,29.97,ENE,78,0.0,0.0,92,0.00,CLR,CLR,0.00,WeatherDisplay:10.35,2013-07-27 01:45:00,
2013-07-26 21:50:00,79.1,76.9,29.98,ENE,78,0.0,0.0,93,0.00,CLR,CLR,0.00,WeatherDisplay:10.35,2013-07-27 01:50:00,
2013-07-26 21:55:00,79.1,76.9,29.98,ENE,78,0.0,0.0,93,0.00,CLR,CLR,0.00,WeatherDisplay:10.35,2013-07-27 01:55:00,
2013-07-26 22:00:00,79.0,76.8,29.98,ENE,78,0.0,0.0,93,0.00,CLR,CLR,0.00,WeatherDisplay:10.35,2013-07-27 02:00:00,
2013-07-26 22:06:00,79.0,76.8,29.98,ENE,78,0.0,0.0,93,0.00,CLR,CLR,0.00,WeatherDisplay:10.35,2013-07-27 02:06:00,
2013-07-26 22:11:00,78.9,77.0,29.98,ENE,78,0.0,0.0,94,0.00,CLR,CLR,0.00,WeatherDisplay:10.35,2013-07-27 02:11:00,
2013-07-26 22:16:00,78.9,77.0,29.99,ENE,78,0.0,0.0,94,0.00,CLR,CLR,0.00,WeatherDisplay:10.35,2013-07-27 02:16:00,
2013-07-26 22:21:00,78.8,76.9,29.99,ENE,78,0.0,0.0,94,0.00,CLR,CLR,0.00,WeatherDisplay:10.35,2013-07-27 02:21:00,
2013-07-26 22:27:00,78.7,76.8,29.99,ENE,78,0.0,0.0,94,0.00,CLR,CLR,0.00,WeatherDisplay:10.35,2013-07-27 02:27:00,
2013-07-26 22:32:00,78.6,76.7,29.99,ENE,78,0.0,0.0,94,0.00,CLR,CLR,0.00,WeatherDisplay:10.35,2013-07-27 02:32:00,
2013-07-26 22:37:00,78.5,76.6,29.99,ENE,78,0.0,0.0,94,0.00,CLR,CLR,0.00,WeatherDisplay:10.35,2013-07-27 02:37:00,
2013-07-26 22:42:00,78.4,76.5,29.99,ENE,78,0.0,0.0,94,0.00,CLR,CLR,0.00,WeatherDisplay:10.35,2013-07-27 02:42:00,
2013-07-26 22:47:00,78.3,76.4,29.98,ENE,78,0.0,0.0,94,0.00,CLR,CLR,0.00,WeatherDisplay:10.35,2013-07-27 02:47:00,
2013-07-26 22:53:00,78.2,76.6,29.98,ENE,78,0.0,0.0,95,0.00,CLR,CLR,0.00,WeatherDisplay:10.35,2013-07-27 02:53:00,
2013-07-26 22:58:00,78.1,76.6,29.98,ENE,78,0.0,0.0,95,0.00,CLR,CLR,0.00,WeatherDisplay:10.35,2013-07-27 02:58:00,
2013-07-26 23:03:00,78.0,76.5,29.98,ENE,78,0.0,0.0,95,0.00,CLR,CLR,0.00,WeatherDisplay:10.35,2013-07-27 03:03:00,
2013-07-26 23:08:00,78.0,76.5,29.98,ENE,78,0.0,0.0,95,0.00,CLR,CLR,0.00,WeatherDisplay:10.35,2013-07-27 03:08:00,
2013-07-26 23:13:00,78.0,76.5,29.98,ENE,78,0.0,0.0,95,0.00,CLR,CLR,0.00,WeatherDisplay:10.35,2013-07-27 03:13:00,
2013-07-26 23:18:00,78.0,76.5,29.98,ENE,78,0.0,0.0,95,0.00,CLR,CLR,0.00,WeatherDisplay:10.35,2013-07-27 03:18:00,
2013-07-26 23:24:00,78.0,76.5,29.98,ENE,78,0.0,0.0,95,0.00,CLR,CLR,0.00,WeatherDisplay:10.35,2013-07-27 03:24:00,
2013-07-26 23:29:00,78.0,76.8,29.98,ENE,78,0.0,0.0,96,0.00,CLR,CLR,0.00,WeatherDisplay:10.35,2013-07-27 03:29:00,
2013-07-26 23:34:00,77.9,76.4,29.98,ENE,78,0.0,0.0,95,0.00,CLR,CLR,0.00,WeatherDisplay:10.35,2013-07-27 03:34:00,
2013-07-26 23:39:00,77.8,76.3,29.98,ENE,78,0.0,0.0,95,0.00,CLR,CLR,0.00,WeatherDisplay:10.35,2013-07-27 03:39:00,
2013-07-26 23:44:00,77.7,76.2,29.98,ENE,68,0.0,0.0,95,0.00,,,0.00,WeatherDisplay:10.35,2013-07-27 03:44:00,
2013-07-26 23:49:00,77.6,76.1,29.98,ENE,78,0.0,0.0,95,0.00,CLR,CLR,0.00,WeatherDisplay:10.35,2013-07-27 03:49:00,
2013-07-26 23:55:00,77.5,76.0,29.98,ENE,78,0.0,0.0,95,0.00,CLR,CLR,0.00,WeatherDisplay:10.35,2013-07-27 03:55:00,